This is the latest recevied weather packets stored in our database for station/object EA4GRN-10. If no packets are shown the sender has not sent any weather packets the latest 10 day(s).
| Time | Temp. | Humidity | Pressure | Rain* | Wind** | Luminosity | Snow |
|---|---|---|---|---|---|---|---|
| 1787869663 | 28.33° C | 44% | 1017.5 hPa | - | - | - | - |
| 1787868763 | 28.33° C | 44% | 1017.4 hPa | - | - | - | - |
| 1787867862 | 28.33° C | 44% | 1017.2 hPa | - | - | - | - |
| 1787866962 | 28.89° C | 43% | 1017.1 hPa | - | - | - | - |
| 1787866062 | 28.89° C | 43% | 1016.7 hPa | - | - | - | - |
| 1787865162 | 28.89° C | 43% | 1016.6 hPa | - | - | - | - |
| 1787864262 | 28.89° C | 43% | 1016.6 hPa | - | - | - | - |
| 1787863362 | 28.89° C | 43% | 1016.4 hPa | - | - | - | - |
| 1787862461 | 28.89° C | 43% | 1016.2 hPa | - | - | - | - |
| 1787861561 | 29.44° C | 43% | 1016 hPa | - | - | - | - |
| 1787860661 | 29.44° C | 43% | 1015.7 hPa | - | - | - | - |
| 1787859761 | 29.44° C | 43% | 1015.5 hPa | - | - | - | - |
| 1787858860 | 29.44° C | 43% | 1015.4 hPa | - | - | - | - |
| 1787857960 | 30° C | 43% | 1015.2 hPa | - | - | - | - |
| 1787857059 | 29.44° C | 43% | 1014.8 hPa | - | - | - | - |
| 1787856159 | 30° C | 42% | 1014.6 hPa | - | - | - | - |
| 1787855259 | 30° C | 42% | 1014.5 hPa | - | - | - | - |
| 1787854359 | 30° C | 42% | 1014.6 hPa | - | - | - | - |
| 1787853459 | 29.44° C | 41% | 1014.3 hPa | - | - | - | - |
| 1787852559 | 27.78° C | 46% | 1014.2 hPa | - | - | - | - |
| 1787852439 | 26.67° C | 47% | 1014.3 hPa | - | - | - | - |
| 1787851988 | 28.89° C | 43% | 1014.9 hPa | - | - | - | - |
| 1787851702 | 30° C | 41% | 1014.8 hPa | - | - | - | - |
| 1787851635 | 30.56° C | 41% | 1014.7 hPa | - | - | - | - |
| 1787851581 | 30.56° C | 40% | 1014.8 hPa | - | - | - | - |
* Rain since midnight (hover to see other rain measurements)
** Current wind speed in m/s (hover to see current wind gust speed)